Sea Drift — WDC2818 — position and weather

sailwx.info

Track history (hours):
 
Tides and Currents Weather Stations Pressure Air Temp Water Temp Dewpoint Dewpoint Depression Visibility Wind Speed Wind Dir Waves Ship Positions

Sea Drift

Owner: Marquette Transportation Company Gulf-Inland, LLC, Jefferson, LA. More information available from US FCC via Universal Licensing System and Coast Guard Vessel Documentation Center.

Last reported at 2015-Jul-29 17:07 UTC. Time now 2015-Jul-30 02:00 UTC.
Position N 29°55' W 090°08'.

Length 23 m; draft 3 m.

Type: Towing. MMSI: 366998080.

Date/timePositionNaut miles runAvg speedWind from/ knotsBaromVisibWave heightAir tempDewpointWater temp
2015-Jul-29 17:07N 29°55' W 090°08'2 2.7
2015-Jul-29 16:16N 29°55' W 090°06'2 2.2
2015-Jul-29 15:33N 29°56' W 090°04'2 2.3
2015-Jul-29 14:33N 29°57' W 090°02'2 1.6
2015-Jul-29 13:32N 29°57' W 090°00'2 1.9
2015-Jul-29 12:29N 29°56' W 089°58'36 0.8
2015-Jul-27 13:33N 29°34' W 090°31'4 3.9
2015-Jul-27 12:33N 29°35' W 090°35'3 3.4
2015-Jul-27 11:33N 29°36' W 090°39'3 3.0
2015-Jul-27 10:33N 29°37' W 090°42'3 3.4
2015-Jul-27 09:33N 29°34' W 090°45'4 4.0
2015-Jul-27 08:33N 29°32' W 090°49'4 4.4
2015-Jul-27 07:33N 29°33' W 090°54'4 4.4
2015-Jul-27 06:33N 29°35' W 090°58'  
2015-Jul-23 12:31N 29°32' W 094°54'6 5.8
2015-Jul-23 11:33N 29°36' W 094°57'6 5.7
2015-Jul-23 10:33N 29°42' W 094°60'5 5.0
2015-Jul-23 09:33N 29°45' W 095°04'1 0.7
2015-Jul-23 07:32N 29°46' W 095°05'2 1.6
2015-Jul-23 06:33N 29°45' W 095°04'5 4.6
2015-Jul-23 05:33N 29°42' W 094°60'5 5.4
2015-Jul-23 04:33N 29°37' W 094°57'5 5.4
2015-Jul-23 03:33N 29°32' W 094°54'6 5.0
2015-Jul-23 02:21N 29°27' W 094°51'  
2015-Jul-20 16:29N 29°33' W 090°54'5 4.9
2015-Jul-20 15:33N 29°32' W 090°48'4 4.3
2015-Jul-20 14:33N 29°34' W 090°44'3 3.5
2015-Jul-20 13:34N 29°37' W 090°42'2 2.3
2015-Jul-20 12:33N 29°36' W 090°39'4 4.5
2015-Jul-20 11:33N 29°34' W 090°34'4 3.9
2015-Jul-20 10:33N 29°34' W 090°30'  
Track history (hours):
 
Tides and Currents Weather Stations Pressure Air Temp Water Temp Dewpoint Dewpoint Depression Visibility Wind Speed Wind Dir Waves Ship Positions

Sea Drift

Owner: Marquette Transportation Company Gulf-Inland, LLC, Jefferson, LA. More information available from US FCC via Universal Licensing System and Coast Guard Vessel Documentation Center.

Last reported at 2015-Jul-29 17:07 UTC. Time now 2015-Jul-30 02:00 UTC.
Position N 29°55' W 090°08'.

Length 23 m; draft 3 m.

Type: Towing. MMSI: 366998080.

Date/timePositionNaut miles runAvg speedWind from/ knotsBaromVisibWave heightAir tempDewpointWater temp
2015-Jul-29 17:07N 29°55' W 090°08'2 2.7
2015-Jul-29 16:16N 29°55' W 090°06'2 2.2
2015-Jul-29 15:33N 29°56' W 090°04'2 2.3
2015-Jul-29 14:33N 29°57' W 090°02'2 1.6
2015-Jul-29 13:32N 29°57' W 090°00'2 1.9
2015-Jul-29 12:29N 29°56' W 089°58'36 0.8
2015-Jul-27 13:33N 29°34' W 090°31'4 3.9
2015-Jul-27 12:33N 29°35' W 090°35'3 3.4
2015-Jul-27 11:33N 29°36' W 090°39'3 3.0
2015-Jul-27 10:33N 29°37' W 090°42'3 3.4
2015-Jul-27 09:33N 29°34' W 090°45'4 4.0
2015-Jul-27 08:33N 29°32' W 090°49'4 4.4
2015-Jul-27 07:33N 29°33' W 090°54'4 4.4
2015-Jul-27 06:33N 29°35' W 090°58'  
2015-Jul-23 12:31N 29°32' W 094°54'6 5.8
2015-Jul-23 11:33N 29°36' W 094°57'6 5.7
2015-Jul-23 10:33N 29°42' W 094°60'5 5.0
2015-Jul-23 09:33N 29°45' W 095°04'1 0.7
2015-Jul-23 07:32N 29°46' W 095°05'2 1.6
2015-Jul-23 06:33N 29°45' W 095°04'5 4.6
2015-Jul-23 05:33N 29°42' W 094°60'5 5.4
2015-Jul-23 04:33N 29°37' W 094°57'5 5.4
2015-Jul-23 03:33N 29°32' W 094°54'6 5.0
2015-Jul-23 02:21N 29°27' W 094°51'  
2015-Jul-20 16:29N 29°33' W 090°54'5 4.9
2015-Jul-20 15:33N 29°32' W 090°48'4 4.3
2015-Jul-20 14:33N 29°34' W 090°44'3 3.5
2015-Jul-20 13:34N 29°37' W 090°42'2 2.3
2015-Jul-20 12:33N 29°36' W 090°39'4 4.5
2015-Jul-20 11:33N 29°34' W 090°34'4 3.9
2015-Jul-20 10:33N 29°34' W 090°30'  

Dump ship's entire track history